Farmington Falls, Maine
Current Conditions -  °F | °C
As of 9:15 AM on Monday 22 Dec 2014 (Local Time) from KWVL Reporting Station
Overcast Overcast  
Wind Chill: 23°   Ceiling: 5000
Heat Index: 28°   Visibility: 10mi
Dew Point: 23°   Wind: 5mph
Humidity: 80%   Direction: 360°N
Pressure: 30.4"   Gusts: NA
Location:  44.62°N, 70.08°W
Report Text: KWVL 221415Z 36004KT 10SM OVC050 M02/M05 A3040 RMK AO1
Loading
Personal Weather Stations






























Interactive Weather Map New forecast layout! Learn more

10-Day Weather Forecast

Advertisements
Track Severe Weather on mobile